sensor_id;sensor_type;location;lat;lon;timestamp;P1;durP1;ratioP1;P2;durP2;ratioP2
58756;SDS011;44527;47.460;19.016;2023-06-10T00:01:27;11.60;;;8.18;;
58756;SDS011;44527;47.460;19.016;2023-06-10T00:04:30;15.75;;;8.68;;
58756;SDS011;44527;47.460;19.016;2023-06-10T00:07:33;13.10;;;8.55;;
58756;SDS011;44527;47.460;19.016;2023-06-10T00:10:40;15.95;;;8.13;;
58756;SDS011;44527;47.460;19.016;2023-06-10T00:13:42;13.30;;;8.45;;
58756;SDS011;44527;47.460;19.016;2023-06-10T00:16:45;12.68;;;8.18;;
58756;SDS011;44527;47.460;19.016;2023-06-10T00:19:47;11.55;;;8.45;;
58756;SDS011;44527;47.460;19.016;2023-06-10T00:22:50;14.10;;;8.15;;
58756;SDS011;44527;47.460;19.016;2023-06-10T00:25:53;11.75;;;7.28;;
58756;SDS011;44527;47.460;19.016;2023-06-10T00:28:55;16.02;;;8.45;;
58756;SDS011;44527;47.460;19.016;2023-06-10T00:31:57;12.80;;;8.07;;
58756;SDS011;44527;47.460;19.016;2023-06-10T00:35:00;13.35;;;8.45;;
58756;SDS011;44527;47.460;19.016;2023-06-10T00:38:05;18.27;;;9.45;;
58756;SDS011;44527;47.460;19.016;2023-06-10T00:41:08;13.23;;;8.52;;
58756;SDS011;44527;47.460;19.016;2023-06-10T00:44:10;16.58;;;7.45;;
58756;SDS011;44527;47.460;19.016;2023-06-10T00:47:13;11.20;;;7.75;;
58756;SDS011;44527;47.460;19.016;2023-06-10T00:50:16;10.65;;;7.10;;
58756;SDS011;44527;47.460;19.016;2023-06-10T00:53:19;15.20;;;6.85;;
58756;SDS011;44527;47.460;19.016;2023-06-10T00:56:22;9.68;;;6.57;;
58756;SDS011;44527;47.460;19.016;2023-06-10T00:59:25;9.60;;;6.15;;
58756;SDS011;44527;47.460;19.016;2023-06-10T01:02:28;6.68;;;4.95;;
58756;SDS011;44527;47.460;19.016;2023-06-10T01:05:32;13.85;;;5.97;;
58756;SDS011;44527;47.460;19.016;2023-06-10T01:11:44;9.90;;;5.68;;
58756;SDS011;44527;47.460;19.016;2023-06-10T01:14:49;9.60;;;5.60;;
58756;SDS011;44527;47.460;19.016;2023-06-10T01:17:59;7.05;;;5.40;;
58756;SDS011;44527;47.460;19.016;2023-06-10T01:21:05;6.62;;;4.82;;
58756;SDS011;44527;47.460;19.016;2023-06-10T01:24:09;9.30;;;5.18;;
58756;SDS011;44527;47.460;19.016;2023-06-10T01:27:13;11.23;;;5.55;;
58756;SDS011;44527;47.460;19.016;2023-06-10T01:30:22;7.90;;;4.82;;
58756;SDS011;44527;47.460;19.016;2023-06-10T01:33:32;9.75;;;5.37;;
58756;SDS011;44527;47.460;19.016;2023-06-10T01:36:38;8.60;;;5.75;;
58756;SDS011;44527;47.460;19.016;2023-06-10T01:39:43;11.23;;;5.65;;
58756;SDS011;44527;47.460;19.016;2023-06-10T01:42:48;11.02;;;5.82;;
58756;SDS011;44527;47.460;19.016;2023-06-10T01:45:51;8.38;;;5.43;;
58756;SDS011;44527;47.460;19.016;2023-06-10T01:48:53;7.82;;;5.55;;
58756;SDS011;44527;47.460;19.016;2023-06-10T01:51:56;7.22;;;5.12;;
58756;SDS011;44527;47.460;19.016;2023-06-10T01:54:58;6.93;;;5.28;;
58756;SDS011;44527;47.460;19.016;2023-06-10T01:58:01;11.12;;;5.37;;
58756;SDS011;44527;47.460;19.016;2023-06-10T02:01:03;6.53;;;5.37;;
58756;SDS011;44527;47.460;19.016;2023-06-10T02:04:06;15.32;;;6.12;;
58756;SDS011;44527;47.460;19.016;2023-06-10T02:07:08;11.85;;;5.07;;
58756;SDS011;44527;47.460;19.016;2023-06-10T02:10:11;8.25;;;5.20;;
58756;SDS011;44527;47.460;19.016;2023-06-10T02:13:13;7.53;;;5.30;;
58756;SDS011;44527;47.460;19.016;2023-06-10T02:16:16;12.73;;;5.43;;
58756;SDS011;44527;47.460;19.016;2023-06-10T02:19:19;8.75;;;5.50;;
58756;SDS011;44527;47.460;19.016;2023-06-10T02:22:23;9.38;;;5.43;;
58756;SDS011;44527;47.460;19.016;2023-06-10T02:25:26;9.95;;;5.35;;
58756;SDS011;44527;47.460;19.016;2023-06-10T02:28:28;8.70;;;5.12;;
58756;SDS011;44527;47.460;19.016;2023-06-10T02:31:32;15.63;;;5.00;;
58756;SDS011;44527;47.460;19.016;2023-06-10T02:34:38;6.62;;;4.65;;
58756;SDS011;44527;47.460;19.016;2023-06-10T02:37:41;7.18;;;4.40;;
58756;SDS011;44527;47.460;19.016;2023-06-10T02:40:43;8.40;;;4.70;;
58756;SDS011;44527;47.460;19.016;2023-06-10T02:43:47;5.57;;;4.40;;
58756;SDS011;44527;47.460;19.016;2023-06-10T02:46:49;8.05;;;4.53;;
58756;SDS011;44527;47.460;19.016;2023-06-10T02:49:53;9.13;;;4.93;;
58756;SDS011;44527;47.460;19.016;2023-06-10T02:52:56;9.30;;;4.47;;
58756;SDS011;44527;47.460;19.016;2023-06-10T02:55:58;7.07;;;4.55;;
58756;SDS011;44527;47.460;19.016;2023-06-10T02:59:01;7.97;;;4.53;;
58756;SDS011;44527;47.460;19.016;2023-06-10T03:02:05;11.12;;;4.87;;
58756;SDS011;44527;47.460;19.016;2023-06-10T03:05:09;7.87;;;4.80;;
58756;SDS011;44527;47.460;19.016;2023-06-10T03:08:14;8.10;;;4.95;;
58756;SDS011;44527;47.460;19.016;2023-06-10T03:11:16;8.57;;;4.65;;
58756;SDS011;44527;47.460;19.016;2023-06-10T03:14:19;8.18;;;4.10;;
58756;SDS011;44527;47.460;19.016;2023-06-10T03:17:21;8.07;;;4.07;;
58756;SDS011;44527;47.460;19.016;2023-06-10T03:20:24;7.45;;;4.47;;
58756;SDS011;44527;47.460;19.016;2023-06-10T03:23:27;6.45;;;4.75;;
58756;SDS011;44527;47.460;19.016;2023-06-10T03:26:30;11.68;;;4.90;;
58756;SDS011;44527;47.460;19.016;2023-06-10T03:29:33;10.63;;;4.55;;
58756;SDS011;44527;47.460;19.016;2023-06-10T03:32:37;9.02;;;5.03;;
58756;SDS011;44527;47.460;19.016;2023-06-10T03:35:40;11.20;;;4.93;;
58756;SDS011;44527;47.460;19.016;2023-06-10T03:38:43;7.95;;;4.20;;
58756;SDS011;44527;47.460;19.016;2023-06-10T03:41:45;9.93;;;4.72;;
58756;SDS011;44527;47.460;19.016;2023-06-10T03:44:48;7.30;;;5.15;;
58756;SDS011;44527;47.460;19.016;2023-06-10T03:47:50;12.43;;;4.93;;
58756;SDS011;44527;47.460;19.016;2023-06-10T03:50:53;6.75;;;4.57;;
58756;SDS011;44527;47.460;19.016;2023-06-10T03:53:56;9.93;;;4.78;;
58756;SDS011;44527;47.460;19.016;2023-06-10T03:56:59;14.82;;;4.82;;
58756;SDS011;44527;47.460;19.016;2023-06-10T04:00:01;8.68;;;4.85;;
58756;SDS011;44527;47.460;19.016;2023-06-10T04:03:15;7.87;;;4.70;;
58756;SDS011;44527;47.460;19.016;2023-06-10T04:06:19;7.18;;;4.35;;
58756;SDS011;44527;47.460;19.016;2023-06-10T04:09:21;10.50;;;4.70;;
58756;SDS011;44527;47.460;19.016;2023-06-10T04:12:24;6.55;;;4.53;;
58756;SDS011;44527;47.460;19.016;2023-06-10T04:15:27;8.25;;;4.20;;
58756;SDS011;44527;47.460;19.016;2023-06-10T04:18:30;9.23;;;4.57;;
58756;SDS011;44527;47.460;19.016;2023-06-10T04:21:33;7.78;;;4.95;;
58756;SDS011;44527;47.460;19.016;2023-06-10T04:24:36;5.62;;;4.45;;
58756;SDS011;44527;47.460;19.016;2023-06-10T04:27:38;8.18;;;4.65;;
58756;SDS011;44527;47.460;19.016;2023-06-10T04:30:41;8.98;;;5.18;;
58756;SDS011;44527;47.460;19.016;2023-06-10T04:33:44;11.63;;;5.20;;
58756;SDS011;44527;47.460;19.016;2023-06-10T04:36:46;6.78;;;4.37;;
58756;SDS011;44527;47.460;19.016;2023-06-10T04:39:49;9.90;;;4.25;;
58756;SDS011;44527;47.460;19.016;2023-06-10T04:42:52;16.52;;;4.30;;
58756;SDS011;44527;47.460;19.016;2023-06-10T04:45:55;8.18;;;3.87;;
58756;SDS011;44527;47.460;19.016;2023-06-10T04:48:58;12.30;;;3.90;;
58756;SDS011;44527;47.460;19.016;2023-06-10T04:52:01;6.15;;;3.42;;
58756;SDS011;44527;47.460;19.016;2023-06-10T04:55:08;6.82;;;3.53;;
58756;SDS011;44527;47.460;19.016;2023-06-10T04:58:11;6.22;;;3.60;;
58756;SDS011;44527;47.460;19.016;2023-06-10T05:01:14;7.15;;;3.50;;
58756;SDS011;44527;47.460;19.016;2023-06-10T05:04:16;12.27;;;4.25;;
58756;SDS011;44527;47.460;19.016;2023-06-10T05:07:19;6.12;;;3.60;;
58756;SDS011;44527;47.460;19.016;2023-06-10T05:10:21;7.50;;;3.80;;
58756;SDS011;44527;47.460;19.016;2023-06-10T05:13:24;6.80;;;3.12;;
58756;SDS011;44527;47.460;19.016;2023-06-10T05:16:27;5.93;;;3.00;;
58756;SDS011;44527;47.460;19.016;2023-06-10T05:19:30;3.50;;;3.15;;
58756;SDS011;44527;47.460;19.016;2023-06-10T05:22:32;5.80;;;2.92;;
58756;SDS011;44527;47.460;19.016;2023-06-10T05:25:36;4.32;;;2.72;;
58756;SDS011;44527;47.460;19.016;2023-06-10T05:28:39;8.90;;;2.60;;
58756;SDS011;44527;47.460;19.016;2023-06-10T05:31:42;4.07;;;2.42;;
58756;SDS011;44527;47.460;19.016;2023-06-10T05:34:44;5.32;;;2.40;;
58756;SDS011;44527;47.460;19.016;2023-06-10T05:37:47;5.62;;;2.12;;
58756;SDS011;44527;47.460;19.016;2023-06-10T05:40:50;6.57;;;2.70;;
58756;SDS011;44527;47.460;19.016;2023-06-10T05:43:53;6.03;;;2.62;;
58756;SDS011;44527;47.460;19.016;2023-06-10T05:46:55;5.20;;;2.20;;
58756;SDS011;44527;47.460;19.016;2023-06-10T05:49:58;3.20;;;1.62;;
58756;SDS011;44527;47.460;19.016;2023-06-10T05:53:00;3.67;;;1.52;;
58756;SDS011;44527;47.460;19.016;2023-06-10T05:56:03;2.58;;;1.60;;
58756;SDS011;44527;47.460;19.016;2023-06-10T05:59:05;4.87;;;1.67;;
58756;SDS011;44527;47.460;19.016;2023-06-10T06:02:08;2.67;;;1.70;;
58756;SDS011;44527;47.460;19.016;2023-06-10T06:05:10;3.78;;;1.35;;
58756;SDS011;44527;47.460;19.016;2023-06-10T06:08:13;4.25;;;2.00;;
58756;SDS011;44527;47.460;19.016;2023-06-10T06:11:19;4.43;;;1.73;;
58756;SDS011;44527;47.460;19.016;2023-06-10T06:14:21;3.08;;;1.60;;
58756;SDS011;44527;47.460;19.016;2023-06-10T06:17:24;3.10;;;1.70;;
58756;SDS011;44527;47.460;19.016;2023-06-10T06:20:27;3.05;;;1.58;;
58756;SDS011;44527;47.460;19.016;2023-06-10T06:23:29;3.33;;;1.80;;
58756;SDS011;44527;47.460;19.016;2023-06-10T06:26:32;6.95;;;1.90;;
58756;SDS011;44527;47.460;19.016;2023-06-10T06:29:35;5.07;;;1.98;;
58756;SDS011;44527;47.460;19.016;2023-06-10T06:32:37;4.25;;;2.00;;
58756;SDS011;44527;47.460;19.016;2023-06-10T06:35:40;2.92;;;1.73;;
58756;SDS011;44527;47.460;19.016;2023-06-10T06:38:43;5.53;;;1.73;;
58756;SDS011;44527;47.460;19.016;2023-06-10T06:41:46;6.05;;;2.00;;
58756;SDS011;44527;47.460;19.016;2023-06-10T06:44:48;6.60;;;1.65;;
58756;SDS011;44527;47.460;19.016;2023-06-10T06:47:51;3.15;;;1.75;;
58756;SDS011;44527;47.460;19.016;2023-06-10T06:50:53;5.20;;;2.28;;
58756;SDS011;44527;47.460;19.016;2023-06-10T06:53:58;3.92;;;2.00;;
58756;SDS011;44527;47.460;19.016;2023-06-10T06:57:01;2.33;;;1.80;;
58756;SDS011;44527;47.460;19.016;2023-06-10T07:00:04;4.72;;;2.37;;
58756;SDS011;44527;47.460;19.016;2023-06-10T07:03:07;4.50;;;2.47;;
58756;SDS011;44527;47.460;19.016;2023-06-10T07:06:10;5.05;;;2.70;;
58756;SDS011;44527;47.460;19.016;2023-06-10T07:09:14;5.12;;;2.35;;
58756;SDS011;44527;47.460;19.016;2023-06-10T07:12:18;6.30;;;3.05;;
58756;SDS011;44527;47.460;19.016;2023-06-10T07:15:21;7.03;;;3.00;;
58756;SDS011;44527;47.460;19.016;2023-06-10T07:18:23;4.95;;;3.25;;
58756;SDS011;44527;47.460;19.016;2023-06-10T07:21:26;5.03;;;3.05;;
58756;SDS011;44527;47.460;19.016;2023-06-10T07:24:30;4.22;;;2.85;;
58756;SDS011;44527;47.460;19.016;2023-06-10T07:27:33;5.60;;;3.40;;
58756;SDS011;44527;47.460;19.016;2023-06-10T07:30:35;6.55;;;3.15;;
58756;SDS011;44527;47.460;19.016;2023-06-10T07:33:38;9.05;;;3.70;;
58756;SDS011;44527;47.460;19.016;2023-06-10T07:36:41;5.28;;;3.20;;
58756;SDS011;44527;47.460;19.016;2023-06-10T07:39:43;5.12;;;3.42;;
58756;SDS011;44527;47.460;19.016;2023-06-10T07:42:47;7.15;;;3.60;;
58756;SDS011;44527;47.460;19.016;2023-06-10T07:45:49;4.65;;;3.80;;
58756;SDS011;44527;47.460;19.016;2023-06-10T07:48:52;4.62;;;3.28;;
58756;SDS011;44527;47.460;19.016;2023-06-10T07:51:55;4.40;;;3.47;;
58756;SDS011;44527;47.460;19.016;2023-06-10T07:54:58;5.87;;;3.28;;
58756;SDS011;44527;47.460;19.016;2023-06-10T07:58:00;11.70;;;3.78;;
58756;SDS011;44527;47.460;19.016;2023-06-10T08:01:03;5.55;;;3.85;;
58756;SDS011;44527;47.460;19.016;2023-06-10T08:04:05;5.32;;;3.08;;
58756;SDS011;44527;47.460;19.016;2023-06-10T08:07:09;6.12;;;3.20;;
58756;SDS011;44527;47.460;19.016;2023-06-10T08:10:11;7.60;;;3.30;;
58756;SDS011;44527;47.460;19.016;2023-06-10T08:13:14;3.60;;;2.95;;
58756;SDS011;44527;47.460;19.016;2023-06-10T08:16:16;6.62;;;3.55;;
58756;SDS011;44527;47.460;19.016;2023-06-10T08:19:18;5.18;;;3.47;;
58756;SDS011;44527;47.460;19.016;2023-06-10T08:22:23;6.20;;;3.20;;
58756;SDS011;44527;47.460;19.016;2023-06-10T08:25:26;5.85;;;3.58;;
58756;SDS011;44527;47.460;19.016;2023-06-10T08:28:29;5.90;;;3.12;;
58756;SDS011;44527;47.460;19.016;2023-06-10T08:31:32;6.32;;;3.50;;
58756;SDS011;44527;47.460;19.016;2023-06-10T08:34:34;6.32;;;3.80;;
58756;SDS011;44527;47.460;19.016;2023-06-10T08:37:39;7.80;;;4.03;;
58756;SDS011;44527;47.460;19.016;2023-06-10T08:40:43;6.03;;;3.65;;
58756;SDS011;44527;47.460;19.016;2023-06-10T08:43:46;3.92;;;3.08;;
58756;SDS011;44527;47.460;19.016;2023-06-10T08:46:58;10.48;;;4.05;;
58756;SDS011;44527;47.460;19.016;2023-06-10T08:50:02;9.75;;;3.42;;
58756;SDS011;44527;47.460;19.016;2023-06-10T08:53:06;5.53;;;3.55;;
58756;SDS011;44527;47.460;19.016;2023-06-10T08:56:09;5.40;;;3.60;;
58756;SDS011;44527;47.460;19.016;2023-06-10T08:59:12;7.10;;;3.70;;
58756;SDS011;44527;47.460;19.016;2023-06-10T09:02:15;6.80;;;4.20;;
58756;SDS011;44527;47.460;19.016;2023-06-10T09:05:22;5.85;;;3.78;;
58756;SDS011;44527;47.460;19.016;2023-06-10T09:08:25;5.10;;;3.33;;
58756;SDS011;44527;47.460;19.016;2023-06-10T09:11:28;6.05;;;3.87;;
58756;SDS011;44527;47.460;19.016;2023-06-10T09:14:30;5.68;;;3.72;;
58756;SDS011;44527;47.460;19.016;2023-06-10T09:17:33;5.72;;;4.10;;
58756;SDS011;44527;47.460;19.016;2023-06-10T09:20:35;7.00;;;4.30;;
58756;SDS011;44527;47.460;19.016;2023-06-10T09:23:38;8.88;;;4.12;;
58756;SDS011;44527;47.460;19.016;2023-06-10T09:26:41;5.62;;;4.05;;
58756;SDS011;44527;47.460;19.016;2023-06-10T09:29:51;6.25;;;4.87;;
58756;SDS011;44527;47.460;19.016;2023-06-10T09:32:55;8.43;;;5.50;;
58756;SDS011;44527;47.460;19.016;2023-06-10T09:36:01;6.10;;;5.37;;
58756;SDS011;44527;47.460;19.016;2023-06-10T09:39:04;5.65;;;4.78;;
58756;SDS011;44527;47.460;19.016;2023-06-10T09:42:15;5.15;;;4.32;;
58756;SDS011;44527;47.460;19.016;2023-06-10T09:45:21;8.85;;;5.00;;
58756;SDS011;44527;47.460;19.016;2023-06-10T09:48:24;6.53;;;4.90;;
58756;SDS011;44527;47.460;19.016;2023-06-10T09:51:27;5.43;;;4.75;;
58756;SDS011;44527;47.460;19.016;2023-06-10T09:54:31;6.22;;;5.20;;
58756;SDS011;44527;47.460;19.016;2023-06-10T09:57:36;6.90;;;5.68;;
58756;SDS011;44527;47.460;19.016;2023-06-10T10:00:39;8.48;;;5.85;;
58756;SDS011;44527;47.460;19.016;2023-06-10T10:03:45;6.90;;;6.20;;
58756;SDS011;44527;47.460;19.016;2023-06-10T10:06:54;7.70;;;6.75;;
58756;SDS011;44527;47.460;19.016;2023-06-10T10:09:57;7.37;;;5.87;;
58756;SDS011;44527;47.460;19.016;2023-06-10T10:12:59;10.10;;;6.37;;
58756;SDS011;44527;47.460;19.016;2023-06-10T10:16:14;10.82;;;8.98;;
58756;SDS011;44527;47.460;19.016;2023-06-10T10:19:28;11.52;;;9.63;;
58756;SDS011;44527;47.460;19.016;2023-06-10T10:22:37;12.88;;;10.02;;
58756;SDS011;44527;47.460;19.016;2023-06-10T10:25:41;13.50;;;9.23;;
58756;SDS011;44527;47.460;19.016;2023-06-10T10:28:48;9.82;;;7.97;;
58756;SDS011;44527;47.460;19.016;2023-06-10T10:31:59;10.02;;;8.05;;
58756;SDS011;44527;47.460;19.016;2023-06-10T10:35:16;8.15;;;7.32;;
58756;SDS011;44527;47.460;19.016;2023-06-10T10:38:21;9.70;;;7.80;;
58756;SDS011;44527;47.460;19.016;2023-06-10T10:41:24;9.68;;;8.00;;
58756;SDS011;44527;47.460;19.016;2023-06-10T10:44:28;10.23;;;7.45;;
58756;SDS011;44527;47.460;19.016;2023-06-10T10:47:31;10.52;;;7.57;;
58756;SDS011;44527;47.460;19.016;2023-06-10T10:50:38;10.93;;;8.50;;
58756;SDS011;44527;47.460;19.016;2023-06-10T10:53:40;9.98;;;8.07;;
58756;SDS011;44527;47.460;19.016;2023-06-10T11:00:14;10.77;;;7.90;;
58756;SDS011;44527;47.460;19.016;2023-06-10T11:03:28;10.80;;;8.45;;
58756;SDS011;44527;47.460;19.016;2023-06-10T11:06:33;9.25;;;7.75;;
58756;SDS011;44527;47.460;19.016;2023-06-10T11:09:35;9.23;;;7.30;;
58756;SDS011;44527;47.460;19.016;2023-06-10T11:12:51;9.88;;;7.60;;
58756;SDS011;44527;47.460;19.016;2023-06-10T11:15:58;8.77;;;7.65;;
58756;SDS011;44527;47.460;19.016;2023-06-10T11:19:01;7.93;;;6.87;;
58756;SDS011;44527;47.460;19.016;2023-06-10T11:22:05;7.50;;;6.40;;
58756;SDS011;44527;47.460;19.016;2023-06-10T11:25:13;7.57;;;6.50;;
58756;SDS011;44527;47.460;19.016;2023-06-10T11:28:19;8.38;;;7.55;;
58756;SDS011;44527;47.460;19.016;2023-06-10T11:31:23;11.85;;;8.05;;
58756;SDS011;44527;47.460;19.016;2023-06-10T11:34:35;9.60;;;8.63;;
58756;SDS011;44527;47.460;19.016;2023-06-10T11:37:38;8.90;;;8.00;;
58756;SDS011;44527;47.460;19.016;2023-06-10T11:40:45;9.20;;;8.30;;
58756;SDS011;44527;47.460;19.016;2023-06-10T11:43:51;10.13;;;8.52;;
58756;SDS011;44527;47.460;19.016;2023-06-10T11:46:55;11.35;;;8.43;;
58756;SDS011;44527;47.460;19.016;2023-06-10T11:49:58;10.73;;;8.18;;
58756;SDS011;44527;47.460;19.016;2023-06-10T11:53:01;9.85;;;8.48;;
58756;SDS011;44527;47.460;19.016;2023-06-10T11:56:04;9.18;;;8.27;;
58756;SDS011;44527;47.460;19.016;2023-06-10T11:59:06;8.82;;;7.90;;
58756;SDS011;44527;47.460;19.016;2023-06-10T12:02:14;9.30;;;8.40;;
58756;SDS011;44527;47.460;19.016;2023-06-10T12:05:21;7.97;;;7.22;;
58756;SDS011;44527;47.460;19.016;2023-06-10T12:08:24;8.10;;;6.95;;
58756;SDS011;44527;47.460;19.016;2023-06-10T12:11:27;11.43;;;8.07;;
58756;SDS011;44527;47.460;19.016;2023-06-10T12:18:09;9.97;;;8.73;;
58756;SDS011;44527;47.460;19.016;2023-06-10T12:21:19;8.50;;;7.60;;
58756;SDS011;44527;47.460;19.016;2023-06-10T12:24:23;8.77;;;7.30;;
58756;SDS011;44527;47.460;19.016;2023-06-10T12:27:26;8.18;;;7.47;;
58756;SDS011;44527;47.460;19.016;2023-06-10T12:30:32;8.48;;;6.65;;
58756;SDS011;44527;47.460;19.016;2023-06-10T12:33:34;6.00;;;5.10;;
58756;SDS011;44527;47.460;19.016;2023-06-10T12:36:37;6.10;;;4.87;;
58756;SDS011;44527;47.460;19.016;2023-06-10T12:39:40;7.57;;;4.10;;
58756;SDS011;44527;47.460;19.016;2023-06-10T12:42:44;4.85;;;4.35;;
58756;SDS011;44527;47.460;19.016;2023-06-10T12:45:50;5.18;;;4.40;;
58756;SDS011;44527;47.460;19.016;2023-06-10T12:48:53;5.25;;;4.35;;
58756;SDS011;44527;47.460;19.016;2023-06-10T12:51:57;4.32;;;3.60;;
58756;SDS011;44527;47.460;19.016;2023-06-10T12:54:59;4.85;;;3.67;;
58756;SDS011;44527;47.460;19.016;2023-06-10T12:58:03;5.07;;;4.15;;
58756;SDS011;44527;47.460;19.016;2023-06-10T13:01:06;5.22;;;4.10;;
58756;SDS011;44527;47.460;19.016;2023-06-10T13:04:08;7.40;;;4.05;;
58756;SDS011;44527;47.460;19.016;2023-06-10T13:07:12;3.72;;;3.40;;
58756;SDS011;44527;47.460;19.016;2023-06-10T13:10:15;6.28;;;3.72;;
58756;SDS011;44527;47.460;19.016;2023-06-10T13:13:19;3.95;;;3.42;;
58756;SDS011;44527;47.460;19.016;2023-06-10T13:16:21;3.55;;;3.15;;
58756;SDS011;44527;47.460;19.016;2023-06-10T13:19:24;3.70;;;2.40;;
58756;SDS011;44527;47.460;19.016;2023-06-10T13:22:26;2.65;;;2.40;;
58756;SDS011;44527;47.460;19.016;2023-06-10T13:25:29;3.05;;;2.45;;
58756;SDS011;44527;47.460;19.016;2023-06-10T13:28:32;2.97;;;2.25;;
58756;SDS011;44527;47.460;19.016;2023-06-10T13:31:37;3.47;;;2.58;;
58756;SDS011;44527;47.460;19.016;2023-06-10T13:34:40;2.33;;;1.87;;
58756;SDS011;44527;47.460;19.016;2023-06-10T13:37:42;2.67;;;2.03;;
58756;SDS011;44527;47.460;19.016;2023-06-10T13:40:45;3.20;;;2.05;;
58756;SDS011;44527;47.460;19.016;2023-06-10T13:43:47;3.30;;;2.22;;
58756;SDS011;44527;47.460;19.016;2023-06-10T13:46:50;7.20;;;2.67;;
58756;SDS011;44527;47.460;19.016;2023-06-10T13:49:53;3.45;;;2.45;;
58756;SDS011;44527;47.460;19.016;2023-06-10T13:52:55;5.82;;;2.45;;
58756;SDS011;44527;47.460;19.016;2023-06-10T13:55:58;5.10;;;2.47;;
58756;SDS011;44527;47.460;19.016;2023-06-10T13:59:00;3.92;;;2.58;;
58756;SDS011;44527;47.460;19.016;2023-06-10T14:02:05;2.67;;;2.33;;
58756;SDS011;44527;47.460;19.016;2023-06-10T14:05:08;3.47;;;2.87;;
58756;SDS011;44527;47.460;19.016;2023-06-10T14:08:11;3.08;;;2.50;;
58756;SDS011;44527;47.460;19.016;2023-06-10T14:11:14;2.97;;;2.67;;
58756;SDS011;44527;47.460;19.016;2023-06-10T14:14:17;5.57;;;2.70;;
58756;SDS011;44527;47.460;19.016;2023-06-10T14:17:19;3.97;;;2.87;;
58756;SDS011;44527;47.460;19.016;2023-06-10T14:20:22;5.15;;;3.10;;
58756;SDS011;44527;47.460;19.016;2023-06-10T14:23:25;3.58;;;2.97;;
58756;SDS011;44527;47.460;19.016;2023-06-10T14:26:28;7.10;;;3.17;;
58756;SDS011;44527;47.460;19.016;2023-06-10T14:29:31;3.28;;;2.47;;
58756;SDS011;44527;47.460;19.016;2023-06-10T14:32:35;6.57;;;2.90;;
58756;SDS011;44527;47.460;19.016;2023-06-10T14:35:38;3.80;;;2.37;;
58756;SDS011;44527;47.460;19.016;2023-06-10T14:38:41;3.40;;;2.40;;
58756;SDS011;44527;47.460;19.016;2023-06-10T14:41:44;3.40;;;2.12;;
58756;SDS011;44527;47.460;19.016;2023-06-10T14:44:46;5.55;;;2.28;;
58756;SDS011;44527;47.460;19.016;2023-06-10T14:47:49;2.75;;;2.37;;
58756;SDS011;44527;47.460;19.016;2023-06-10T14:50:51;4.55;;;2.25;;
58756;SDS011;44527;47.460;19.016;2023-06-10T14:53:54;2.87;;;2.08;;
58756;SDS011;44527;47.460;19.016;2023-06-10T14:56:56;3.58;;;2.47;;
58756;SDS011;44527;47.460;19.016;2023-06-10T14:59:59;3.70;;;2.50;;
58756;SDS011;44527;47.460;19.016;2023-06-10T15:03:02;2.87;;;2.42;;
58756;SDS011;44527;47.460;19.016;2023-06-10T15:06:05;3.28;;;2.40;;
58756;SDS011;44527;47.460;19.016;2023-06-10T15:09:07;2.95;;;2.30;;
58756;SDS011;44527;47.460;19.016;2023-06-10T15:12:10;3.87;;;2.20;;
58756;SDS011;44527;47.460;19.016;2023-06-10T15:15:12;2.80;;;2.30;;
58756;SDS011;44527;47.460;19.016;2023-06-10T15:18:15;3.17;;;2.20;;
58756;SDS011;44527;47.460;19.016;2023-06-10T15:21:18;3.75;;;2.70;;
58756;SDS011;44527;47.460;19.016;2023-06-10T15:24:21;4.50;;;2.45;;
58756;SDS011;44527;47.460;19.016;2023-06-10T15:27:23;4.57;;;2.25;;
58756;SDS011;44527;47.460;19.016;2023-06-10T15:30:26;4.12;;;2.75;;
58756;SDS011;44527;47.460;19.016;2023-06-10T15:33:28;4.28;;;2.65;;
58756;SDS011;44527;47.460;19.016;2023-06-10T15:36:31;6.22;;;2.35;;
58756;SDS011;44527;47.460;19.016;2023-06-10T15:39:33;6.55;;;2.33;;
58756;SDS011;44527;47.460;19.016;2023-06-10T15:42:36;6.22;;;2.87;;
58756;SDS011;44527;47.460;19.016;2023-06-10T15:45:38;5.10;;;2.20;;
58756;SDS011;44527;47.460;19.016;2023-06-10T15:48:41;3.00;;;2.30;;
58756;SDS011;44527;47.460;19.016;2023-06-10T15:51:44;3.10;;;2.10;;
58756;SDS011;44527;47.460;19.016;2023-06-10T15:54:52;3.45;;;2.12;;
58756;SDS011;44527;47.460;19.016;2023-06-10T15:57:54;3.83;;;2.05;;
58756;SDS011;44527;47.460;19.016;2023-06-10T16:00:59;2.85;;;2.00;;
58756;SDS011;44527;47.460;19.016;2023-06-10T16:04:02;2.75;;;1.90;;
58756;SDS011;44527;47.460;19.016;2023-06-10T16:07:04;3.97;;;1.87;;
58756;SDS011;44527;47.460;19.016;2023-06-10T16:10:07;5.00;;;2.00;;
58756;SDS011;44527;47.460;19.016;2023-06-10T16:13:09;3.03;;;2.10;;
58756;SDS011;44527;47.460;19.016;2023-06-10T16:16:12;3.10;;;2.00;;
58756;SDS011;44527;47.460;19.016;2023-06-10T16:19:15;3.03;;;2.20;;
58756;SDS011;44527;47.460;19.016;2023-06-10T16:22:17;4.82;;;2.08;;
58756;SDS011;44527;47.460;19.016;2023-06-10T16:25:20;3.80;;;2.40;;
58756;SDS011;44527;47.460;19.016;2023-06-10T16:28:23;3.60;;;2.78;;
58756;SDS011;44527;47.460;19.016;2023-06-10T16:31:25;3.70;;;2.70;;
58756;SDS011;44527;47.460;19.016;2023-06-10T16:34:28;3.50;;;2.42;;
58756;SDS011;44527;47.460;19.016;2023-06-10T16:37:30;4.47;;;2.55;;
58756;SDS011;44527;47.460;19.016;2023-06-10T16:40:33;4.07;;;2.80;;
58756;SDS011;44527;47.460;19.016;2023-06-10T16:43:35;4.72;;;2.65;;
58756;SDS011;44527;47.460;19.016;2023-06-10T16:46:38;3.40;;;2.60;;
58756;SDS011;44527;47.460;19.016;2023-06-10T16:49:40;4.57;;;2.90;;
58756;SDS011;44527;47.460;19.016;2023-06-10T16:52:43;8.40;;;3.20;;
58756;SDS011;44527;47.460;19.016;2023-06-10T16:55:45;6.60;;;2.58;;
58756;SDS011;44527;47.460;19.016;2023-06-10T16:58:48;6.53;;;3.00;;
58756;SDS011;44527;47.460;19.016;2023-06-10T17:01:50;3.55;;;2.65;;
58756;SDS011;44527;47.460;19.016;2023-06-10T17:04:53;4.80;;;2.53;;
58756;SDS011;44527;47.460;19.016;2023-06-10T17:07:55;3.85;;;2.72;;
58756;SDS011;44527;47.460;19.016;2023-06-10T17:10:58;4.70;;;2.75;;
58756;SDS011;44527;47.460;19.016;2023-06-10T17:14:00;4.57;;;2.53;;
58756;SDS011;44527;47.460;19.016;2023-06-10T17:17:06;3.78;;;2.87;;
58756;SDS011;44527;47.460;19.016;2023-06-10T17:20:09;4.62;;;2.65;;
58756;SDS011;44527;47.460;19.016;2023-06-10T17:23:12;5.50;;;3.12;;
58756;SDS011;44527;47.460;19.016;2023-06-10T17:26:14;6.93;;;2.85;;
58756;SDS011;44527;47.460;19.016;2023-06-10T17:29:17;3.83;;;2.83;;
58756;SDS011;44527;47.460;19.016;2023-06-10T17:32:19;6.75;;;3.12;;
58756;SDS011;44527;47.460;19.016;2023-06-10T17:35:22;6.55;;;3.05;;
58756;SDS011;44527;47.460;19.016;2023-06-10T17:38:24;7.50;;;2.75;;
58756;SDS011;44527;47.460;19.016;2023-06-10T17:41:27;5.82;;;2.85;;
58756;SDS011;44527;47.460;19.016;2023-06-10T17:44:29;3.58;;;2.65;;
58756;SDS011;44527;47.460;19.016;2023-06-10T17:47:33;6.43;;;2.85;;
58756;SDS011;44527;47.460;19.016;2023-06-10T17:50:36;4.47;;;3.10;;
58756;SDS011;44527;47.460;19.016;2023-06-10T17:53:38;4.45;;;3.53;;
58756;SDS011;44527;47.460;19.016;2023-06-10T17:56:41;3.33;;;2.70;;
58756;SDS011;44527;47.460;19.016;2023-06-10T17:59:44;11.15;;;3.10;;
58756;SDS011;44527;47.460;19.016;2023-06-10T18:02:47;4.95;;;2.87;;
58756;SDS011;44527;47.460;19.016;2023-06-10T18:05:49;6.97;;;3.17;;
58756;SDS011;44527;47.460;19.016;2023-06-10T18:08:52;4.57;;;3.30;;
58756;SDS011;44527;47.460;19.016;2023-06-10T18:11:54;9.35;;;3.25;;
58756;SDS011;44527;47.460;19.016;2023-06-10T18:14:57;4.80;;;2.90;;
58756;SDS011;44527;47.460;19.016;2023-06-10T18:17:59;6.35;;;3.62;;